Time;durP1;ratioP1;P1;durP2;ratioP2;P2;SDS_P1;SDS_P2;PMS_P1;PMS_P2;Temp;Humidity;BMP_temperature;BMP_pressure;BME280_temperature;BME280_humidity;BME280_pressure;Samples;Min_cycle;Max_cycle;Signal;HPM_P1;HPM_P2
2023/09/09 07:01:26;;;;;;;0.20;0.20;;;31.30;99.90;37.30;101524.00;;;;6209658;22;1545673;-72
2023/09/09 07:03:55;;;;;;;0.20;0.20;;;31.80;99.90;37.00;101542.00;;;;6256202;22;20176;-72
2023/09/09 07:06:27;;;;;;;0.10;0.10;;;32.00;99.90;37.50;101535.00;;;;6256251;22;20152;-72
2023/09/09 07:08:56;;;;;;;0.60;0.60;;;32.10;99.90;37.40;101541.00;;;;6309455;22;20148;-72
2023/09/09 07:11:22;;;;;;;0.68;0.68;;;32.20;99.90;37.60;101535.00;;;;6281465;22;20707;-73
2023/09/09 07:13:49;;;;;;;0.73;0.73;;;32.40;99.90;37.90;101529.00;;;;6256111;22;20160;-72
2023/09/09 07:16:16;;;;;;;0.10;0.10;;;32.70;99.90;38.70;101521.00;;;;6280806;22;20233;-72
2023/09/09 07:18:47;;;;;;;0.28;0.28;;;33.10;99.90;38.30;101527.00;;;;6281112;22;20496;-73
2023/09/09 07:21:35;;;;;;;0.10;0.10;;;33.40;99.90;38.30;101510.00;;;;6255745;22;20159;-72
2023/09/09 07:24:07;;;;;;;0.95;0.95;;;33.30;99.90;37.80;101516.00;;;;6308232;22;20147;-72
2023/09/09 07:27:16;;;;;;;0.10;0.10;;;33.30;99.90;39.10;101520.00;;;;6281510;22;20168;-72
2023/09/09 07:29:56;;;;;;;0.10;0.10;;;33.50;99.90;38.60;101525.00;;;;6252867;22;20198;-72
2023/09/09 07:32:33;;;;;;;0.25;0.25;;;33.60;99.90;38.90;101504.00;;;;6255574;22;20478;-72
2023/09/09 07:35:23;;;;;;;0.10;0.10;;;33.50;99.90;37.80;101552.00;;;;6255412;22;20201;-72
2023/09/09 07:37:53;;;;;;;0.70;0.70;;;33.10;99.90;38.40;101523.00;;;;6280962;22;20195;-72
2023/09/09 07:40:22;;;;;;;0.43;0.43;;;33.20;99.90;38.00;101561.00;;;;6280162;22;20538;-72
2023/09/09 07:42:53;;;;;;;0.20;0.20;;;32.90;99.90;37.10;101574.00;;;;6256601;22;20172;-72
2023/09/09 07:45:19;;;;;;;0.35;0.28;;;32.30;99.90;38.20;101563.00;;;;6279985;22;20137;-72
2023/09/09 07:47:51;;;;;;;0.20;0.20;;;32.80;99.90;38.20;101569.00;;;;6253700;22;20152;-72
2023/09/09 07:50:17;;;;;;;0.10;0.10;;;32.90;99.90;38.20;101573.00;;;;6254705;22;20156;-71
2023/09/09 07:52:46;;;;;;;0.93;0.93;;;32.90;99.90;37.90;101549.00;;;;6307688;22;20491;-71
2023/09/09 07:55:12;;;;;;;0.30;0.30;;;33.00;99.90;37.60;101591.00;;;;6280905;22;20140;-71
2023/09/09 07:57:39;;;;;;;2.45;2.25;;;32.70;99.90;37.40;101601.00;;;;6255206;22;20460;-71
2023/09/09 08:00:25;;;;;;;1.95;1.58;;;32.60;99.90;37.40;101595.00;;;;6244433;22;20227;-71
2023/09/09 08:02:54;;;;;;;0.10;0.10;;;32.50;99.90;38.00;101590.00;;;;6224863;22;20591;-70
2023/09/09 08:05:30;;;;;;;1.10;1.10;;;32.70;99.90;37.00;101621.00;;;;6224054;22;20160;-71
2023/09/09 08:08:05;;;;;;;0.57;0.57;;;32.40;99.90;35.70;101646.00;;;;6224399;22;20156;-71
2023/09/09 08:10:48;;;;;;;0.57;0.45;;;31.90;99.90;36.30;101648.00;;;;6276505;22;20153;-72
2023/09/09 08:13:16;;;;;;;0.10;0.10;;;31.90;99.90;36.30;101642.00;;;;6252385;22;20141;-71
2023/09/09 08:15:42;;;;;;;12.55;1.52;;;31.90;99.90;37.70;101623.00;;;;6224444;22;20463;-71
2023/09/09 08:18:08;;;;;;;0.50;0.50;;;32.40;99.90;36.90;101639.00;;;;6223840;22;20152;-71
2023/09/09 08:20:55;;;;;;;0.65;0.65;;;32.20;99.90;35.60;101663.00;;;;6223668;22;20203;-72
2023/09/09 08:23:22;;;;;;;2.13;1.88;;;31.60;99.90;36.30;101663.00;;;;6249024;22;20314;-72
2023/09/09 08:25:48;;;;;;;1.40;1.40;;;31.40;99.90;34.20;101683.00;;;;6224180;22;20591;-71
2023/09/09 08:28:41;;;;;;;0.30;0.30;;;31.20;99.90;35.50;101677.00;;;;6276584;22;20195;-71
2023/09/09 08:31:14;;;;;;;5.03;4.45;;;30.80;99.90;33.50;101702.00;;;;6223723;22;20545;-71
2023/09/09 08:34:04;;;;;;;1.00;1.00;;;30.70;99.90;32.50;101700.00;;;;6223927;22;20153;-71
2023/09/09 08:37:04;;;;;;;1.08;1.08;;;29.50;99.90;34.60;101680.00;;;;6224404;22;20473;-71
2023/09/09 08:39:39;;;;;;;3.22;3.00;;;29.80;99.90;35.30;101675.00;;;;6249317;22;20633;-71
2023/09/09 08:42:58;;;;;;;3.17;2.13;;;30.50;99.90;35.80;101644.00;;;;6224253;22;20180;-71
2023/09/09 08:45:37;;;;;;;6.20;5.57;;;30.90;99.90;35.20;101666.00;;;;6250228;22;20156;-70
2023/09/09 08:48:34;;;;;;;2.70;2.47;;;31.00;99.90;35.20;101664.00;;;;6276124;22;20562;-71
2023/09/09 08:51:03;;;;;;;0.88;0.70;;;30.90;99.90;36.00;101668.00;;;;6276595;22;20233;-71
2023/09/09 08:53:32;;;;;;;3.60;3.03;;;31.00;99.90;33.20;101699.00;;;;6249820;22;20174;-70
2023/09/09 08:55:59;;;;;;;5.90;4.20;;;30.40;99.90;33.50;101694.00;;;;6249603;22;20148;-70
2023/09/09 08:58:29;;;;;;;1.90;1.80;;;30.00;99.90;34.10;101684.00;;;;6224103;22;20295;-70
2023/09/09 09:01:35;;;;;;;1.52;1.48;;;30.00;99.90;32.90;101682.00;;;;6269535;22;20164;-70
2023/09/09 09:04:05;;;;;;;8.93;7.13;;;29.30;99.90;32.80;101685.00;;;;6254659;22;20148;-71
2023/09/09 09:06:48;;;;;;;3.30;3.03;;;29.50;99.90;33.90;101692.00;;;;6278824;22;20208;-71
2023/09/09 09:09:37;;;;;;;7.22;4.05;;;29.50;99.90;35.60;101654.00;;;;6254251;22;20156;-71
2023/09/09 09:12:25;;;;;;;2.00;1.90;;;30.50;99.90;35.70;101658.00;;;;6253668;22;20156;-71
2023/09/09 09:15:12;;;;;;;5.20;3.15;;;31.00;99.90;36.10;101650.00;;;;6279661;22;20515;-71
2023/09/09 09:17:45;;;;;;;2.42;2.13;;;31.70;99.90;36.90;101619.00;;;;6255986;22;20182;-71
2023/09/09 09:20:33;;;;;;;0.43;0.43;;;32.10;99.90;36.60;101634.00;;;;6255970;22;20873;-71
2023/09/09 09:23:12;;;;;;;0.20;0.20;;;32.10;99.90;36.30;101644.00;;;;6253523;22;20176;-71
2023/09/09 09:26:24;;;;;;;0.10;0.10;;;32.00;99.90;36.40;101629.00;;;;6254243;22;20487;-70
2023/09/09 09:29:07;;;;;;;0.80;0.80;;;32.10;99.90;37.00;101606.00;;;;6279922;22;20488;-71
2023/09/09 09:31:41;;;;;;;0.20;0.20;;;32.20;99.90;36.90;101609.00;;;;6253883;22;20160;-71
2023/09/09 09:34:34;;;;;;;5.30;1.73;;;32.40;99.90;36.90;101613.00;;;;6306809;22;20227;-71
2023/09/09 09:37:09;;;;;;;1.50;1.40;;;32.30;99.90;37.10;101604.00;;;;6252989;22;20202;-71
2023/09/09 09:39:35;;;;;;;2.70;2.50;;;32.20;99.90;36.40;101614.00;;;;6306773;22;20167;-71
2023/09/09 09:42:02;;;;;;;0.38;0.38;;;32.10;99.90;36.40;101622.00;;;;6279637;22;20532;-73
2023/09/09 09:44:29;;;;;;;1.00;1.00;;;31.90;99.90;37.00;101623.00;;;;6278008;22;20148;-71
2023/09/09 09:47:00;;;;;;;2.72;2.28;;;32.00;99.90;34.40;101660.00;;;;6279558;22;20149;-71
2023/09/09 09:49:40;;;;;;;1.20;1.13;;;31.60;99.90;36.10;101640.00;;;;6307421;22;20164;-72
2023/09/09 09:52:08;;;;;;;0.45;0.45;;;31.40;99.90;36.60;101617.00;;;;6279639;22;20156;-71
2023/09/09 09:54:38;;;;;;;0.82;0.77;;;31.60;99.90;36.10;101644.00;;;;6279160;22;20198;-72
2023/09/09 09:57:10;;;;;;;1.90;1.85;;;31.90;99.90;37.00;101625.00;;;;6306591;22;20141;-72
2023/09/09 09:59:37;;;;;;;0.77;0.77;;;32.00;99.90;36.20;101644.00;;;;6305442;22;20160;-71
2023/09/09 10:02:16;;;;;;;0.10;0.10;;;31.80;99.90;36.80;101655.00;;;;6279348;22;20176;-71
2023/09/09 10:05:06;;;;;;;0.30;0.30;;;32.00;99.90;37.10;101619.00;;;;6278819;22;20568;-71
2023/09/09 10:07:37;;;;;;;0.50;0.50;;;32.40;99.90;37.40;101607.00;;;;6278957;22;20164;-71
2023/09/09 10:10:27;;;;;;;1.40;1.33;;;32.60;99.90;35.80;101644.00;;;;6254002;22;20163;-70
2023/09/09 10:13:33;;;;;;;0.98;0.98;;;32.00;99.90;37.30;101615.00;;;;6254012;22;20178;-72
2023/09/09 10:16:26;;;;;;;1.35;1.35;;;32.20;99.90;36.20;101613.00;;;;6250664;22;20169;-71
2023/09/09 10:19:36;;;;;;;2.58;2.00;;;32.50;99.90;36.90;101629.00;;;;6279539;22;20159;-70
2023/09/09 10:34:06;;;;;;;1.85;1.23;;;31.40;99.90;36.40;101637.00;;;;5103593;27;20590;-71
2023/09/09 10:37:13;;;;;;;2.05;1.95;;;31.80;99.90;37.00;101594.00;;;;5084954;28;20197;-70
2023/09/09 10:40:02;;;;;;;0.40;0.40;;;32.30;99.90;36.70;101561.00;;;;5083452;28;20197;-71
2023/09/09 10:42:49;;;;;;;0.10;0.10;;;32.40;99.90;37.20;101571.00;;;;5082888;28;20196;-70
2023/09/09 10:45:28;;;;;;;2.33;2.13;;;32.60;99.90;36.30;101603.00;;;;5115159;27;20818;-71
2023/09/09 10:48:03;;;;;;;0.85;0.85;;;32.70;99.90;36.50;101585.00;;;;5085268;28;20546;-70
2023/09/09 10:50:51;;;;;;;4.05;2.42;;;32.30;99.90;36.30;101593.00;;;;5097157;28;20630;-71
2023/09/09 10:54:06;;;;;;;0.15;0.15;;;32.40;99.90;37.60;101573.00;;;;5087347;28;20200;-70
2023/09/09 10:57:02;;;;;;;0.82;0.82;;;32.90;99.90;37.60;101550.00;;;;5072664;28;20203;-70
2023/09/09 10:59:40;;;;;;;0.10;0.10;;;32.90;99.90;37.60;101573.00;;;;5098326;28;20196;-70
2023/09/09 11:02:18;;;;;;;1.45;1.05;;;33.10;99.90;37.70;101563.00;;;;5084102;28;20197;-70
2023/09/09 11:05:12;;;;;;;2.38;2.20;;;33.20;99.90;37.00;101574.00;;;;5088071;28;20184;-70
2023/09/09 11:08:28;;;;;;;0.52;0.52;;;32.80;99.90;37.10;101593.00;;;;5085798;28;20638;-70
2023/09/09 11:11:12;;;;;;;0.17;0.17;;;32.70;99.90;36.90;101595.00;;;;5086780;28;20268;-70
2023/09/09 11:14:11;;;;;;;1.08;0.80;;;32.70;99.90;36.50;101604.00;;;;5087310;28;20242;-70
2023/09/09 11:16:42;;;;;;;4.22;1.58;;;32.70;99.90;37.10;101576.00;;;;5031425;28;20211;-70
2023/09/09 11:19:21;;;;;;;0.40;0.40;;;32.60;99.90;36.50;101603.00;;;;5080592;28;20190;-70
2023/09/09 11:22:06;;;;;;;0.10;0.10;;;32.90;99.90;36.80;101599.00;;;;5080485;28;20180;-70
2023/09/09 11:24:57;;;;;;;0.28;0.28;;;32.50;99.90;37.90;101556.00;;;;5083561;28;20181;-70
2023/09/09 11:27:43;;;;;;;0.43;0.43;;;32.80;99.90;37.70;101577.00;;;;5084262;28;20723;-69
2023/09/09 11:30:18;;;;;;;0.30;0.30;;;33.10;99.90;38.00;101563.00;;;;5068414;28;20184;-71
2023/09/09 11:33:07;;;;;;;0.50;0.50;;;33.10;99.90;37.60;101585.00;;;;5096614;28;20208;-71
2023/09/09 11:35:44;;;;;;;0.40;0.40;;;33.20;99.90;37.40;101584.00;;;;5086596;28;20181;-70
2023/09/09 11:38:14;;;;;;;0.90;0.90;;;33.00;99.90;38.10;101561.00;;;;5085918;28;20647;-71
2023/09/09 11:40:41;;;;;;;0.50;0.50;;;33.20;99.90;37.40;101573.00;;;;5080121;28;20199;-71
2023/09/09 11:43:10;;;;;;;0.70;0.60;;;33.20;99.90;37.70;101569.00;;;;5081274;28;20216;-70
2023/09/09 11:45:56;;;;;;;0.20;0.20;;;33.10;99.90;37.70;101572.00;;;;5070224;28;20186;-71
2023/09/09 11:48:25;;;;;;;0.93;0.38;;;33.10;99.90;37.90;101573.00;;;;5071518;28;20215;-70
2023/09/09 11:50:55;;;;;;;0.20;0.20;;;33.10;99.90;37.30;101582.00;;;;5088188;28;20200;-71
2023/09/09 11:53:39;;;;;;;0.17;0.17;;;33.00;99.90;37.40;101565.00;;;;5069790;28;20197;-71
2023/09/09 11:56:27;;;;;;;0.43;0.43;;;32.80;99.90;36.30;101593.00;;;;5066117;28;20235;-70
2023/09/09 11:59:16;;;;;;;0.47;0.43;;;32.80;99.90;37.10;101566.00;;;;5050281;28;20227;-71
2023/09/09 12:02:05;;;;;;;0.30;0.30;;;32.70;99.90;37.70;101587.00;;;;5066536;28;21054;-71
2023/09/09 12:04:31;;;;;;;0.90;0.90;;;32.90;99.90;37.90;101579.00;;;;5066066;28;20182;-71
2023/09/09 12:07:00;;;;;;;0.88;0.88;;;33.10;99.90;37.50;101580.00;;;;5072683;28;20663;-71
2023/09/09 12:09:46;;;;;;;2.90;0.95;;;33.20;99.90;37.00;101598.00;;;;5073331;28;20213;-71
2023/09/09 12:12:12;;;;;;;1.63;1.52;;;32.70;99.90;36.10;101600.00;;;;5067386;28;20680;-71
2023/09/09 12:15:03;;;;;;;0.20;0.20;;;32.30;99.90;35.00;101575.00;;;;5071362;28;20209;-70
2023/09/09 12:17:29;;;;;;;0.47;0.47;;;31.50;99.90;36.20;101598.00;;;;5071711;28;20274;-71
2023/09/09 12:20:19;;;;;;;0.60;0.60;;;31.60;99.90;36.60;101618.00;;;;5073506;28;20177;-71
2023/09/09 12:22:51;;;;;;;0.13;0.13;;;31.70;99.90;36.90;101606.00;;;;5065713;28;20263;-71
2023/09/09 12:25:34;;;;;;;0.20;0.20;;;32.10;99.90;37.20;101593.00;;;;5071271;28;20612;-71
2023/09/09 12:28:02;;;;;;;0.70;0.70;;;32.30;99.90;36.30;101618.00;;;;5070071;28;20198;-71
2023/09/09 12:30:31;;;;;;;0.10;0.10;;;32.10;99.90;36.50;101594.00;;;;5074272;28;20203;-71
2023/09/09 12:33:18;;;;;;;0.63;0.63;;;31.90;99.90;36.70;101609.00;;;;5073009;28;20209;-71
2023/09/09 12:36:16;;;;;;;0.10;0.10;;;32.10;99.90;35.50;101626.00;;;;5087181;28;20592;-70
2023/09/09 12:38:47;;;;;;;0.45;0.45;;;31.90;99.90;36.80;101619.00;;;;5055213;28;20754;-71
2023/09/09 12:41:36;;;;;;;0.20;0.20;;;32.00;99.90;35.90;101625.00;;;;5069220;28;20251;-71
2023/09/09 12:44:27;;;;;;;0.10;0.10;;;31.90;99.90;37.10;101603.00;;;;5064715;28;20202;-70
2023/09/09 12:48:08;;;;;;;0.75;0.75;;;32.10;99.90;36.80;101600.00;;;;5058305;28;20205;-71
2023/09/09 12:51:17;;;;;;;5.07;4.78;;;32.30;99.90;37.60;101593.00;;;;5053321;28;20199;-72
2023/09/09 12:54:01;;;;;;;0.65;0.65;;;32.50;99.90;37.10;101593.00;;;;5072756;28;20236;-71
2023/09/09 12:56:50;;;;;;;0.38;0.38;;;32.70;99.90;38.20;101570.00;;;;5087568;28;20196;-72
2023/09/09 12:59:33;;;;;;;1.00;0.95;;;32.90;99.90;38.10;101566.00;;;;5071304;28;20212;-72
2023/09/09 13:01:59;;;;;;;0.32;0.32;;;33.20;99.90;37.50;101590.00;;;;5081373;28;20185;-71
2023/09/09 13:04:25;;;;;;;0.73;0.73;;;32.90;99.90;36.40;101599.00;;;;5078590;28;20195;-71
2023/09/09 13:07:00;;;;;;;1.45;0.95;;;32.50;99.90;36.70;101580.00;;;;5071521;28;20190;-71
2023/09/09 13:09:26;;;;;;;1.60;1.48;;;32.30;99.90;36.20;101601.00;;;;5072799;28;20181;-71
2023/09/09 13:11:54;;;;;;;0.20;0.20;;;32.20;99.90;36.10;101608.00;;;;5067437;28;20562;-71
2023/09/09 13:14:21;;;;;;;0.20;0.20;;;32.00;99.90;36.50;101605.00;;;;5069811;28;20193;-72
2023/09/09 13:16:49;;;;;;;1.13;1.02;;;32.10;99.90;36.30;101606.00;;;;5062813;28;20593;-71
2023/09/09 13:19:16;;;;;;;0.82;0.82;;;32.10;99.90;36.70;101595.00;;;;5079121;28;20648;-71
2023/09/09 13:21:42;;;;;;;0.57;0.57;;;32.10;99.90;36.30;101604.00;;;;5096017;28;20528;-71
2023/09/09 13:24:08;;;;;;;0.55;0.55;;;32.10;99.90;36.70;101574.00;;;;5071441;28;20192;-71
2023/09/09 13:26:41;;;;;;;1.05;0.98;;;32.20;99.90;36.30;101609.00;;;;5065508;28;20194;-71
2023/09/09 13:29:07;;;;;;;1.65;0.77;;;32.00;99.90;36.70;101587.00;;;;5069586;28;20182;-71
2023/09/09 13:31:33;;;;;;;0.15;0.15;;;32.20;99.90;36.20;101604.00;;;;5060851;28;20682;-71
2023/09/09 13:34:06;;;;;;;0.90;0.90;;;32.10;99.90;36.80;101583.00;;;;5068243;28;20227;-71
2023/09/09 13:36:34;;;;;;;0.82;0.82;;;32.20;99.90;36.00;101601.00;;;;5067856;28;20193;-71
2023/09/09 13:39:00;;;;;;;0.20;0.20;;;32.00;99.90;36.50;101584.00;;;;5071226;28;20663;-71
2023/09/09 13:41:35;;;;;;;0.55;0.52;;;32.10;99.90;36.00;101594.00;;;;5070512;28;20219;-71
2023/09/09 13:44:33;;;;;;;0.73;0.73;;;32.00;99.90;36.50;101578.00;;;;5069617;28;20227;-71
2023/09/09 13:47:06;;;;;;;0.10;0.10;;;32.10;99.90;37.40;101560.00;;;;5081856;28;20181;-72
2023/09/09 13:49:34;;;;;;;0.10;0.10;;;32.40;99.90;38.10;101534.00;;;;5081515;28;20271;-71
2023/09/09 13:52:00;;;;;;;1.30;1.30;;;32.70;99.90;37.80;101523.00;;;;5066688;28;20201;-72
2023/09/09 13:54:34;;;;;;;0.30;0.30;;;33.10;99.90;36.80;101559.00;;;;5063767;28;20549;-71
2023/09/09 13:57:06;;;;;;;0.10;0.10;;;32.80;99.90;37.00;101568.00;;;;5067444;28;20189;-71
2023/09/09 13:59:42;;;;;;;0.10;0.10;;;32.60;99.90;37.60;101558.00;;;;5068681;28;20240;-71
2023/09/09 14:02:08;;;;;;;1.38;1.27;;;32.70;99.90;37.70;101551.00;;;;5066968;28;20246;-71
2023/09/09 14:04:52;;;;;;;0.15;0.15;;;33.00;99.90;37.00;101563.00;;;;5078725;28;20194;-72
2023/09/09 14:07:58;;;;;;;1.65;1.20;;;32.50;99.90;37.40;101535.00;;;;5062134;28;20216;-71
2023/09/09 14:10:33;;;;;;;0.65;0.65;;;32.70;99.90;37.60;101555.00;;;;5069998;28;20200;-71
2023/09/09 14:13:02;;;;;;;1.20;0.65;;;33.00;99.90;36.70;101564.00;;;;5069549;28;20204;-71
2023/09/09 14:15:46;;;;;;;0.75;0.70;;;32.80;99.90;36.40;101574.00;;;;5078953;28;20201;-71
2023/09/09 14:18:29;;;;;;;0.10;0.10;;;32.40;99.90;36.90;101568.00;;;;5095491;28;20661;-71
2023/09/09 14:21:19;;;;;;;0.10;0.10;;;32.40;99.90;37.20;101560.00;;;;5083937;28;20208;-71
2023/09/09 14:24:03;;;;;;;0.77;0.77;;;32.50;99.90;36.70;101554.00;;;;5065880;28;20178;-72
2023/09/09 14:26:46;;;;;;;0.55;0.55;;;32.50;99.90;37.70;101539.00;;;;5049433;28;20721;-72
2023/09/09 14:29:14;;;;;;;1.00;0.60;;;32.70;99.90;36.80;101565.00;;;;5081302;28;20190;-71
2023/09/09 14:31:43;;;;;;;0.10;0.10;;;32.70;99.90;37.70;101551.00;;;;5074219;28;20252;-71
2023/09/09 14:34:19;;;;;;;0.65;0.65;;;32.70;99.90;37.20;101560.00;;;;5069369;28;20208;-71
2023/09/09 14:36:56;;;;;;;0.68;0.68;;;32.70;99.90;37.40;101546.00;;;;5068958;28;20181;-71
2023/09/09 14:39:40;;;;;;;1.05;1.05;;;32.60;99.90;36.90;101549.00;;;;5052561;28;20189;-71
2023/09/09 14:42:12;;;;;;;0.75;0.75;;;32.60;99.90;36.70;101533.00;;;;5079658;28;20193;-72
2023/09/09 14:44:45;;;;;;;0.50;0.50;;;32.30;99.90;36.80;101531.00;;;;5051202;28;20206;-71
2023/09/09 14:47:11;;;;;;;1.33;1.33;;;32.20;99.90;37.30;101545.00;;;;5062372;28;20196;-71
2023/09/09 14:49:39;;;;;;;0.30;0.30;;;32.40;99.90;37.30;101545.00;;;;5083289;28;20210;-72
2023/09/09 14:52:27;;;;;;;0.20;0.20;;;32.50;99.90;37.70;101541.00;;;;5076529;28;20197;-71
2023/09/09 14:54:59;;;;;;;0.10;0.10;;;32.70;99.90;37.90;101511.00;;;;5063923;28;20239;-70
2023/09/09 14:57:28;;;;;;;2.25;2.05;;;32.80;99.90;37.80;101517.00;;;;5077904;28;20182;-70
2023/09/09 15:00:08;;;;;;;0.30;0.30;;;32.80;99.90;36.90;101554.00;;;;5061414;28;20190;-70
2023/09/09 15:02:44;;;;;;;0.28;0.28;;;32.80;99.90;37.20;101540.00;;;;5066006;28;20197;-70
2023/09/09 15:05:13;;;;;;;0.15;0.15;;;32.50;99.90;37.40;101538.00;;;;5052390;28;20227;-70
2023/09/09 15:07:45;;;;;;;0.10;0.10;;;32.60;99.90;37.90;101513.00;;;;5057032;28;20205;-70
2023/09/09 15:10:21;;;;;;;1.75;0.98;;;32.70;99.90;36.70;101535.00;;;;5066726;28;20224;-71
2023/09/09 15:13:22;;;;;;;1.27;0.70;;;32.50;99.90;37.40;101535.00;;;;5059617;28;20213;-70
2023/09/09 15:15:48;;;;;;;0.10;0.10;;;32.60;99.90;38.00;101530.00;;;;5051099;28;20658;-70
2023/09/09 15:18:44;;;;;;;0.45;0.45;;;32.80;99.90;37.20;101546.00;;;;5070588;28;20620;-71
2023/09/09 15:21:32;;;;;;;0.43;0.43;;;32.70;99.90;37.00;101545.00;;;;5067691;28;20185;-70
2023/09/09 15:23:58;;;;;;;0.17;0.17;;;32.60;99.90;36.20;101551.00;;;;5064593;28;20194;-70
2023/09/09 15:26:25;;;;;;;0.38;0.38;;;32.30;99.90;37.00;101549.00;;;;5073775;28;20205;-71
2023/09/09 15:29:11;;;;;;;0.50;0.50;;;32.30;99.90;36.60;101562.00;;;;5063256;28;20182;-69
2023/09/09 15:31:55;;;;;;;1.02;0.80;;;32.40;99.90;36.80;101549.00;;;;5055353;28;20241;-70
2023/09/09 15:34:24;;;;;;;0.75;0.75;;;32.20;99.90;37.30;101526.00;;;;5074123;28;20185;-70
2023/09/09 15:37:25;;;;;;;0.10;0.10;;;32.50;99.90;37.60;101515.00;;;;5071107;28;20217;-70
2023/09/09 15:40:30;;;;;;;0.10;0.10;;;32.60;99.90;37.20;101532.00;;;;4995867;28;20229;-71
2023/09/09 15:43:03;;;;;;;0.10;0.10;;;32.50;99.90;36.50;101548.00;;;;4993838;28;20771;-70
2023/09/09 15:46:41;;;;;;;0.20;0.20;;;32.20;99.90;36.50;101538.00;;;;4992755;28;20223;-69
2023/09/09 15:49:20;;;;;;;1.50;1.27;;;32.10;99.90;36.20;101537.00;;;;4990993;28;20204;-70
2023/09/09 15:51:48;;;;;;;0.28;0.28;;;32.10;99.90;36.40;101557.00;;;;4976345;28;20200;-70
2023/09/09 15:54:37;;;;;;;1.15;0.93;;;31.90;99.90;35.50;101561.00;;;;4977514;28;20192;-70
2023/09/09 15:57:31;;;;;;;0.45;0.45;;;31.90;99.90;35.40;101566.00;;;;4976852;28;20920;-70
2023/09/09 16:00:23;;;;;;;0.10;0.10;;;31.40;99.90;36.30;101529.00;;;;4978307;28;20192;-70
2023/09/09 16:03:10;;;;;;;0.20;0.20;;;31.50;99.90;36.70;101542.00;;;;4971380;28;20200;-70
2023/09/09 16:05:36;;;;;;;0.10;0.10;;;31.90;99.90;36.20;101547.00;;;;4973867;28;20185;-70
2023/09/09 16:08:02;;;;;;;0.10;0.10;;;31.80;99.90;36.70;101537.00;;;;4974542;28;20746;-70
2023/09/09 16:11:09;;;;;;;0.47;0.47;;;31.90;99.90;36.40;101553.00;;;;5075808;28;20561;-69
2023/09/09 16:14:16;;;;;;;0.50;0.45;;;31.80;99.90;36.20;101547.00;;;;5063887;28;20744;-70
2023/09/09 16:17:06;;;;;;;0.25;0.25;;;31.90;99.90;36.20;101547.00;;;;5001991;28;20272;-71
2023/09/09 16:20:04;;;;;;;0.40;0.40;;;31.70;99.90;35.70;101559.00;;;;5017623;28;20696;-69
2023/09/09 16:24:07;;;;;;;0.20;0.20;;;31.50;99.90;36.20;101559.00;;;;5036154;28;20193;-69
2023/09/09 16:26:55;;;;;;;0.10;0.10;;;31.60;99.90;36.30;101550.00;;;;4937602;29;20201;-70
2023/09/09 16:29:53;;;;;;;0.20;0.20;;;31.60;99.90;35.60;101565.00;;;;4940363;29;20198;-69
2023/09/09 16:32:51;;;;;;;0.52;0.50;;;31.30;99.90;35.70;101555.00;;;;4938322;29;20222;-69
2023/09/09 16:35:23;;;;;;;0.75;0.75;;;31.30;99.90;36.20;101547.00;;;;4991737;28;20255;-71
2023/09/09 16:37:49;;;;;;;0.10;0.10;;;31.40;99.90;36.70;101547.00;;;;4990370;28;20290;-69
2023/09/09 16:40:39;;;;;;;0.10;0.10;;;31.60;99.90;36.50;101557.00;;;;4960445;28;21006;-71
2023/09/09 16:43:27;;;;;;;0.35;0.35;;;31.70;99.90;36.50;101558.00;;;;5042915;28;20213;-72
2023/09/09 16:46:16;;;;;;;0.68;0.68;;;31.70;99.90;35.80;101569.00;;;;5066353;28;20209;-67
2023/09/09 16:48:54;;;;;;;0.22;0.22;;;31.50;99.90;35.90;101550.00;;;;5082925;28;20230;-71
2023/09/09 16:51:41;;;;;;;0.65;0.65;;;31.50;99.90;35.40;101566.00;;;;5070099;28;20174;-71
2023/09/09 16:54:46;;;;;;;0.30;0.30;;;31.40;99.90;36.10;101561.00;;;;5068964;28;20177;-70
2023/09/09 16:57:31;;;;;;;0.10;0.10;;;31.40;99.90;36.40;101542.00;;;;5010231;28;20184;-67
2023/09/09 17:00:22;;;;;;;0.20;0.20;;;31.50;99.90;36.20;101561.00;;;;5011017;28;20274;-70
2023/09/09 17:05:48;;;;;;;1.45;1.40;;;31.50;99.90;36.50;101555.00;;;;5019399;28;20218;-74
2023/09/09 17:08:27;;;;;;;0.57;0.57;;;31.50;99.90;36.10;101543.00;;;;5030980;28;20193;-74
2023/09/09 17:11:05;;;;;;;0.75;0.75;;;31.50;99.90;35.30;101569.00;;;;5081165;28;20185;-75
2023/09/09 17:13:56;;;;;;;0.20;0.20;;;31.30;99.90;36.30;101530.00;;;;5069866;28;20209;-75
2023/09/09 17:16:26;;;;;;;0.45;0.45;;;31.30;99.90;35.80;101556.00;;;;5079218;28;20195;-74
2023/09/09 17:19:27;;;;;;;0.77;0.77;;;31.20;99.90;35.30;101556.00;;;;5069975;28;20196;-75
2023/09/09 17:21:56;;;;;;;0.20;0.20;;;30.90;99.90;35.30;101544.00;;;;5065347;28;20212;-74
2023/09/09 17:24:47;;;;;;;0.20;0.20;;;30.80;99.90;35.50;101538.00;;;;5064234;28;20186;-74
2023/09/09 17:27:16;;;;;;;0.22;0.22;;;30.70;99.90;35.80;101523.00;;;;5078821;28;20208;-74
2023/09/09 17:29:47;;;;;;;0.35;0.35;;;31.00;99.90;35.60;101546.00;;;;5054215;28;20280;-75
2023/09/09 17:32:24;;;;;;;2.15;1.95;;;30.90;99.90;35.80;101531.00;;;;5062067;28;20213;-75
2023/09/09 17:34:53;;;;;;;1.05;1.05;;;31.00;99.90;36.20;101541.00;;;;5053499;28;20185;-75
2023/09/09 17:37:26;;;;;;;0.22;0.22;;;31.10;99.90;36.30;101544.00;;;;5072753;28;20200;-75
2023/09/09 17:40:01;;;;;;;0.68;0.68;;;31.30;99.90;35.70;101525.00;;;;5072286;28;20181;-74
2023/09/09 17:42:37;;;;;;;0.15;0.15;;;31.00;99.90;35.50;101530.00;;;;5080909;28;20190;-75
2023/09/09 17:45:11;;;;;;;0.50;0.50;;;30.80;99.90;34.90;101537.00;;;;5078474;28;20254;-75
2023/09/09 17:48:11;;;;;;;0.45;0.45;;;30.60;99.90;35.50;101527.00;;;;5065923;28;20174;-76
2023/09/09 17:50:38;;;;;;;0.45;0.45;;;30.50;99.90;35.50;101521.00;;;;5048696;28;20197;-76
2023/09/09 17:53:26;;;;;;;0.38;0.38;;;30.60;99.90;35.30;101535.00;;;;5081688;28;20204;-76
2023/09/09 17:56:23;;;;;;;0.20;0.20;;;30.60;99.90;35.40;101532.00;;;;5068351;28;20690;-76
2023/09/09 17:59:06;;;;;;;0.20;0.20;;;30.70;99.90;35.10;101531.00;;;;5070085;28;20177;-76
2023/09/09 18:02:02;;;;;;;0.55;0.55;;;30.60;99.90;35.20;101526.00;;;;5073447;28;20273;-76
2023/09/09 18:04:52;;;;;;;0.20;0.20;;;30.40;99.90;35.40;101519.00;;;;5066685;28;20319;-77
2023/09/09 18:07:42;;;;;;;0.30;0.30;;;30.50;99.90;34.90;101514.00;;;;5070352;28;20266;-76
2023/09/09 18:10:33;;;;;;;0.20;0.20;;;30.20;99.90;35.00;101483.00;;;;5076049;28;20507;-76
2023/09/09 18:13:04;;;;;;;0.20;0.20;;;30.20;99.90;34.80;101494.00;;;;5086967;28;20214;-76
2023/09/09 18:15:51;;;;;;;0.20;0.20;;;30.10;99.90;34.80;101491.00;;;;5087618;28;20235;-76
2023/09/09 18:18:42;;;;;;;1.05;1.05;;;29.90;99.90;34.20;101501.00;;;;5052506;28;20209;-77
2023/09/09 18:21:45;;;;;;;0.20;0.20;;;30.10;99.90;34.20;101472.00;;;;5056620;28;20669;-76
2023/09/09 18:24:37;;;;;;;0.32;0.32;;;29.60;99.90;34.30;101476.00;;;;5082995;28;20184;-77
2023/09/09 18:27:10;;;;;;;0.20;0.20;;;29.60;99.90;34.40;101464.00;;;;5065249;28;20199;-77
2023/09/09 18:29:59;;;;;;;0.47;0.47;;;29.60;99.90;33.80;101456.00;;;;5059764;28;20197;-77
2023/09/09 18:32:49;;;;;;;0.50;0.50;;;29.40;99.90;33.80;101466.00;;;;5082429;28;20212;-77
2023/09/09 18:35:34;;;;;;;0.20;0.20;;;29.30;99.90;34.10;101472.00;;;;5045216;28;20200;-78
2023/09/09 18:38:29;;;;;;;0.20;0.20;;;29.30;99.90;33.90;101467.00;;;;5066526;28;20724;-78
2023/09/09 18:41:18;;;;;;;0.30;0.30;;;29.40;99.90;34.00;101465.00;;;;5075396;28;20213;-78
2023/09/09 18:44:06;;;;;;;0.20;0.20;;;29.20;99.90;33.60;101458.00;;;;5048702;28;20182;-79
2023/09/09 18:46:57;;;;;;;0.40;0.40;;;29.10;99.90;33.60;101463.00;;;;5067473;28;20188;-79
2023/09/09 18:49:34;;;;;;;1.05;1.05;;;29.10;99.90;33.60;101474.00;;;;5070124;28;20185;-79
2023/09/09 18:52:08;;;;;;;0.20;0.20;;;29.10;99.90;33.80;101481.00;;;;5082157;28;20214;-79
2023/09/09 18:54:37;;;;;;;0.20;0.20;;;29.20;99.90;33.50;101451.00;;;;5062217;28;20229;-79
2023/09/09 18:57:08;;;;;;;0.40;0.40;;;29.10;99.90;33.80;101466.00;;;;5074894;28;20227;-78
2023/09/09 18:59:47;;;;;;;0.63;0.63;;;29.10;99.90;33.60;101472.00;;;;5070172;28;20186;-80
2023/09/09 19:02:17;;;;;;;0.20;0.20;;;29.10;99.90;33.30;101471.00;;;;5067671;28;20193;-79